createdAt,value
2019-03-30T00:00:50.995Z,5.00
2019-03-30T00:03:20.966Z,5.10
2019-03-30T00:05:50.911Z,5.00
2019-03-30T00:08:20.870Z,5.00
2019-03-30T00:10:50.807Z,4.80
2019-03-30T00:13:20.859Z,4.80
2019-03-30T00:15:50.796Z,5.10
2019-03-30T00:18:20.734Z,5.00
2019-03-30T00:20:50.704Z,5.00
2019-03-30T00:23:20.681Z,4.90
2019-03-30T00:25:50.711Z,4.90
2019-03-30T00:28:21.554Z,4.90
2019-03-30T00:30:51.696Z,5.00
2019-03-30T00:33:21.814Z,5.10
2019-03-30T00:35:51.739Z,5.10
2019-03-30T00:38:22.406Z,5.00
2019-03-30T00:40:52.377Z,5.00
2019-03-30T00:43:22.327Z,4.90
2019-03-30T00:45:53.347Z,4.90
2019-03-30T00:48:23.288Z,4.80
2019-03-30T00:50:53.276Z,4.80
2019-03-30T00:53:23.215Z,4.70
2019-03-30T00:55:53.163Z,4.60
2019-03-30T00:58:25.613Z,4.70
2019-03-30T01:00:54.891Z,4.60
2019-03-30T01:03:24.951Z,4.60
2019-03-30T01:05:58.140Z,4.50
2019-03-30T01:08:26.775Z,4.50
2019-03-30T01:10:56.722Z,4.50
2019-03-30T01:13:26.666Z,4.60
2019-03-30T01:15:56.702Z,4.70
2019-03-30T01:18:26.708Z,4.80
2019-03-30T01:20:56.651Z,4.80
2019-03-30T01:23:26.614Z,5.10
2019-03-30T01:25:56.660Z,4.90
2019-03-30T01:28:27.435Z,5.00
2019-03-30T01:30:57.408Z,5.10
2019-03-30T01:33:27.359Z,5.10
2019-03-30T01:35:57.407Z,5.10
2019-03-30T01:38:27.347Z,5.00
2019-03-30T01:40:57.299Z,5.10
2019-03-30T01:43:27.289Z,5.10
2019-03-30T01:45:57.233Z,5.00
2019-03-30T01:48:27.185Z,5.00
2019-03-30T01:50:57.153Z,4.80
2019-03-30T01:53:27.256Z,4.90
2019-03-30T01:55:57.299Z,4.90
2019-03-30T01:58:27.237Z,4.90
2019-03-30T02:00:57.184Z,4.80
2019-03-30T02:03:27.181Z,4.60
2019-03-30T02:05:57.103Z,4.70
2019-03-30T02:08:27.049Z,4.40
2019-03-30T02:10:57.046Z,4.30
2019-03-30T02:13:27.084Z,4.20
2019-03-30T02:15:57.015Z,4.20
2019-03-30T02:18:27.098Z,4.30
2019-03-30T02:20:57.082Z,4.30
2019-03-30T02:23:28.151Z,4.20
2019-03-30T02:25:58.118Z,4.20
2019-03-30T02:28:28.109Z,4.20
2019-03-30T02:30:59.013Z,4.10
2019-03-30T02:33:28.970Z,4.40
2019-03-30T02:35:59.049Z,4.40
2019-03-30T02:38:29.016Z,4.30
2019-03-30T02:40:58.988Z,4.20
2019-03-30T02:43:29.008Z,4.20
2019-03-30T02:45:59.015Z,4.10
2019-03-30T02:48:28.954Z,4.20
2019-03-30T02:51:21.847Z,4.10
2019-03-30T02:53:52.838Z,3.90
2019-03-30T02:56:22.869Z,3.90
2019-03-30T02:58:52.820Z,3.80
2019-03-30T03:01:22.811Z,3.70
2019-03-30T03:03:52.837Z,3.70
2019-03-30T03:06:22.972Z,3.70
2019-03-30T03:08:52.937Z,3.60
2019-03-30T03:11:22.967Z,3.60
2019-03-30T03:13:52.923Z,3.70
2019-03-30T03:16:27.308Z,3.70
2019-03-30T03:18:55.723Z,3.70
2019-03-30T03:21:26.933Z,3.50
2019-03-30T03:24:09.093Z,3.50
2019-03-30T03:26:39.058Z,3.60
2019-03-30T03:29:09.009Z,3.60
2019-03-30T03:31:39.846Z,3.60
2019-03-30T03:34:09.785Z,3.70
2019-03-30T03:36:41.061Z,3.70
2019-03-30T03:39:11.083Z,3.70
2019-03-30T03:41:41.037Z,3.40
2019-03-30T03:44:11.033Z,3.30
2019-03-30T03:46:40.969Z,3.50
2019-03-30T03:49:10.933Z,3.40
2019-03-30T03:51:41.440Z,3.20
2019-03-30T03:54:11.844Z,3.10
2019-03-30T03:56:42.922Z,3.10
2019-03-30T03:59:13.530Z,3.10
2019-03-30T04:01:45.258Z,3.00
2019-03-30T04:04:18.027Z,2.90
2019-03-30T04:07:14.972Z,2.90
2019-03-30T04:09:48.000Z,2.90
2019-03-30T04:12:20.140Z,2.90
2019-03-30T04:14:52.187Z,2.80
2019-03-30T04:17:22.304Z,2.80
2019-03-30T04:19:52.260Z,2.80
2019-03-30T04:22:22.219Z,2.70
2019-03-30T04:24:52.259Z,2.80
2019-03-30T04:27:22.266Z,2.80
2019-03-30T04:29:52.227Z,2.80
2019-03-30T04:32:23.071Z,2.80
2019-03-30T04:34:53.256Z,2.70
2019-03-30T04:37:23.218Z,2.70
2019-03-30T04:39:53.249Z,2.80
2019-03-30T04:42:23.247Z,2.80
2019-03-30T04:44:53.219Z,2.90
2019-03-30T04:47:23.166Z,2.80
2019-03-30T04:49:53.140Z,2.80
2019-03-30T04:52:25.851Z,2.80
2019-03-30T04:54:56.783Z,2.80
2019-03-30T04:57:26.797Z,2.90
2019-03-30T04:59:57.732Z,3.00
2019-03-30T05:02:27.748Z,3.00
2019-03-30T05:04:57.816Z,3.10
2019-03-30T05:07:27.823Z,3.10
2019-03-30T05:09:57.788Z,3.10
2019-03-30T05:12:27.733Z,3.20
2019-03-30T05:14:57.739Z,3.20
2019-03-30T05:17:27.683Z,3.20
2019-03-30T05:19:57.666Z,3.30
2019-03-30T05:22:27.612Z,3.40
2019-03-30T05:24:57.619Z,3.50
2019-03-30T05:27:27.592Z,3.60
2019-03-30T05:29:57.680Z,3.70
2019-03-30T05:32:28.435Z,3.70
2019-03-30T05:34:58.462Z,3.80
2019-03-30T05:37:28.453Z,3.80
2019-03-30T05:39:58.395Z,3.90
2019-03-30T05:42:28.518Z,4.10
2019-03-30T05:44:58.492Z,4.20
2019-03-30T05:47:28.471Z,4.20
2019-03-30T05:49:58.450Z,4.40
2019-03-30T05:52:28.455Z,4.60
2019-03-30T05:54:58.482Z,4.70
2019-03-30T05:57:28.442Z,4.70
2019-03-30T05:59:58.451Z,5.00
2019-03-30T06:02:28.401Z,5.00
2019-03-30T06:04:58.761Z,5.20
2019-03-30T06:07:28.993Z,5.30
2019-03-30T06:09:58.998Z,5.50
2019-03-30T06:12:28.953Z,5.60
2019-03-30T06:14:58.952Z,5.70
2019-03-30T06:17:28.919Z,5.80
2019-03-30T06:19:58.872Z,6.00
2019-03-30T06:22:39.726Z,6.10
2019-03-30T06:25:00.529Z,6.20
2019-03-30T06:27:30.527Z,6.40
2019-03-30T06:30:18.226Z,6.60
2019-03-30T06:32:49.074Z,6.70
2019-03-30T06:35:19.064Z,6.90
2019-03-30T06:37:49.080Z,7.00
2019-03-30T06:40:19.060Z,7.20
2019-03-30T06:42:50.127Z,7.40
2019-03-30T06:45:20.066Z,7.50
2019-03-30T06:47:50.114Z,7.70
2019-03-30T06:50:20.141Z,7.90
2019-03-30T06:52:57.303Z,8.00
2019-03-30T06:55:21.804Z,8.20
2019-03-30T06:57:51.942Z,8.40
2019-03-30T07:00:32.766Z,8.50
2019-03-30T07:03:06.396Z,8.70
2019-03-30T07:05:39.593Z,8.90
2019-03-30T07:08:11.657Z,9.00
2019-03-30T07:10:46.709Z,9.20
2019-03-30T07:13:16.895Z,9.40
2019-03-30T07:15:48.291Z,9.60
2019-03-30T07:18:19.921Z,9.70
2019-03-30T07:20:49.932Z,9.80
2019-03-30T07:23:19.955Z,10.10
2019-03-30T07:26:11.087Z,10.30
2019-03-30T07:28:41.100Z,10.00
2019-03-30T07:31:11.146Z,9.90
2019-03-30T07:33:41.112Z,9.80
2019-03-30T07:36:11.106Z,9.80
2019-03-30T07:38:41.181Z,9.90
2019-03-30T07:41:12.265Z,9.90
2019-03-30T07:43:42.894Z,9.70
2019-03-30T07:46:12.840Z,9.90
2019-03-30T07:48:42.804Z,9.90
2019-03-30T07:51:12.800Z,10.00
2019-03-30T07:53:44.601Z,10.30
2019-03-30T07:56:14.458Z,10.50
2019-03-30T07:58:45.480Z,10.70
2019-03-30T08:01:15.559Z,10.90
2019-03-30T08:03:45.518Z,11.10
2019-03-30T08:06:15.532Z,11.30
2019-03-30T08:08:45.515Z,11.40
2019-03-30T08:11:15.459Z,11.50
2019-03-30T08:13:45.525Z,11.60
2019-03-30T08:16:15.526Z,11.80
2019-03-30T08:18:45.699Z,11.80
2019-03-30T08:21:15.742Z,11.80
2019-03-30T08:23:45.726Z,11.90
2019-03-30T08:26:15.716Z,12.10
2019-03-30T08:28:45.824Z,12.20
2019-03-30T08:31:15.932Z,12.30
2019-03-30T08:33:45.947Z,12.30
2019-03-30T08:36:19.878Z,12.40
2019-03-30T08:38:50.136Z,12.70
2019-03-30T08:41:20.176Z,12.80
2019-03-30T08:43:50.105Z,12.80
2019-03-30T08:46:20.027Z,12.90
2019-03-30T08:48:50.010Z,12.80
2019-03-30T08:51:20.933Z,12.70
2019-03-30T08:53:54.675Z,12.80
2019-03-30T08:56:22.870Z,12.80
2019-03-30T08:58:53.023Z,12.90
2019-03-30T09:01:23.008Z,13.00
2019-03-30T09:03:53.050Z,13.10
2019-03-30T09:06:23.104Z,13.40
2019-03-30T09:08:53.051Z,13.20
2019-03-30T09:11:23.043Z,13.10
2019-03-30T09:13:52.986Z,13.10
2019-03-30T09:16:23.210Z,13.20
2019-03-30T09:18:53.197Z,13.10
2019-03-30T09:21:23.135Z,13.50
2019-03-30T09:23:53.246Z,13.60
2019-03-30T09:26:23.336Z,13.80
2019-03-30T09:28:53.404Z,14.10
2019-03-30T09:31:23.355Z,14.40
2019-03-30T09:33:54.773Z,14.60
2019-03-30T09:36:24.805Z,14.50
2019-03-30T09:38:54.906Z,14.60
2019-03-30T09:41:24.835Z,14.80
2019-03-30T09:43:54.816Z,15.00
2019-03-30T09:46:24.788Z,15.00
2019-03-30T09:48:54.826Z,15.40
2019-03-30T09:51:24.803Z,15.70
2019-03-30T09:53:54.947Z,15.90
2019-03-30T09:56:24.952Z,16.00
2019-03-30T09:58:55.895Z,16.30
2019-03-30T10:01:25.858Z,16.60
2019-03-30T10:03:55.855Z,16.60
2019-03-30T10:06:34.400Z,16.80
2019-03-30T10:08:57.535Z,17.20
2019-03-30T10:11:27.488Z,17.60
2019-03-30T10:13:57.566Z,18.30
2019-03-30T10:16:27.568Z,21.80
2019-03-30T10:18:57.545Z,25.80
2019-03-30T10:21:28.798Z,28.10
2019-03-30T10:23:58.801Z,29.40
2019-03-30T10:26:28.766Z,31.40
2019-03-30T10:29:01.395Z,30.80
2019-03-30T10:31:31.028Z,32.20
2019-03-30T10:34:00.667Z,33.10
2019-03-30T10:36:30.501Z,33.70
2019-03-30T10:39:00.957Z,34.20
2019-03-30T10:41:32.317Z,32.60
2019-03-30T10:44:01.986Z,34.60
2019-03-30T10:46:31.724Z,35.00
2019-03-30T10:49:01.454Z,33.90
2019-03-30T10:51:31.095Z,33.80
2019-03-30T10:54:00.757Z,31.70
2019-03-30T10:56:30.389Z,28.00
2019-03-30T10:59:01.336Z,26.70
2019-03-30T11:01:30.974Z,26.10
2019-03-30T11:04:00.881Z,24.80
2019-03-30T11:06:30.553Z,26.50
2019-03-30T11:09:00.197Z,26.80
2019-03-30T11:11:29.916Z,27.20
2019-03-30T11:14:00.758Z,26.60
2019-03-30T11:16:30.479Z,25.80
2019-03-30T11:19:00.149Z,25.40
2019-03-30T11:21:30.045Z,25.70
2019-03-30T11:23:59.708Z,26.00
2019-03-30T11:26:29.372Z,25.00
2019-03-30T11:28:59.011Z,25.50
2019-03-30T11:31:28.714Z,25.50
2019-03-30T11:33:58.388Z,25.30
2019-03-30T11:36:28.024Z,24.90
2019-03-30T11:38:57.721Z,25.30
2019-03-30T11:41:28.282Z,25.30
2019-03-30T11:43:57.940Z,25.00
2019-03-30T11:46:27.652Z,25.40
2019-03-30T11:48:57.540Z,25.40
2019-03-30T11:51:27.184Z,25.20
2019-03-30T11:53:56.848Z,26.20
2019-03-30T11:56:26.482Z,25.60
2019-03-30T11:58:56.126Z,26.10
2019-03-30T12:01:25.894Z,26.00
2019-03-30T12:03:55.608Z,25.10
2019-03-30T12:06:25.245Z,25.10
2019-03-30T12:08:54.955Z,25.60
2019-03-30T12:11:24.608Z,25.10
2019-03-30T12:13:54.363Z,25.80
2019-03-30T12:16:24.102Z,24.90
2019-03-30T12:18:53.828Z,25.70
2019-03-30T12:21:23.488Z,25.80
2019-03-30T12:23:53.394Z,26.00
2019-03-30T12:26:23.079Z,26.60
2019-03-30T12:28:53.715Z,26.60
2019-03-30T12:31:23.384Z,26.50
2019-03-30T12:33:53.104Z,26.80
2019-03-30T12:36:22.781Z,26.90
2019-03-30T12:38:52.424Z,27.40
2019-03-30T12:41:22.082Z,27.70
2019-03-30T12:43:52.644Z,27.60
2019-03-30T12:46:22.487Z,31.80
2019-03-30T12:48:52.132Z,33.40
2019-03-30T12:51:21.811Z,35.50
2019-03-30T12:56:20.674Z,37.10
2019-03-30T12:58:50.335Z,39.30
2019-03-30T13:03:49.335Z,39.10
2019-03-30T13:06:19.491Z,39.20
2019-03-30T13:08:49.207Z,40.80
2019-03-30T13:11:18.869Z,40.00
2019-03-30T13:13:49.008Z,40.30
2019-03-30T13:18:47.998Z,40.60
2019-03-30T13:21:17.664Z,41.30
2019-03-30T13:26:16.587Z,41.40
2019-03-30T13:28:46.324Z,41.30
2019-03-30T13:31:17.034Z,41.70
2019-03-30T13:33:46.687Z,41.20
2019-03-30T13:36:16.522Z,41.50
2019-03-30T13:46:14.845Z,43.00
2019-03-30T13:48:44.533Z,42.80
2019-03-30T13:51:14.182Z,42.30
2019-03-30T13:53:43.824Z,41.50
2019-03-30T13:58:44.411Z,40.90
2019-03-30T14:08:41.788Z,40.50
2019-03-30T14:21:08.800Z,39.50
2019-03-30T14:31:06.196Z,40.10
2019-03-30T14:36:05.156Z,39.60
2019-03-30T14:46:02.982Z,39.80
2019-03-30T14:48:33.451Z,39.50
2019-03-30T14:51:03.150Z,39.90
2019-03-30T14:53:32.868Z,39.70
2019-03-30T14:56:02.630Z,39.20
2019-03-30T14:58:32.386Z,39.10
2019-03-30T15:03:33.107Z,38.20
2019-03-30T15:06:02.744Z,36.60
2019-03-30T15:08:32.384Z,36.70
2019-03-30T15:11:02.159Z,37.50
2019-03-30T15:13:31.807Z,37.20
2019-03-30T15:16:01.535Z,36.90
2019-03-30T15:18:31.180Z,36.50
2019-03-30T15:21:00.847Z,36.10
2019-03-30T15:23:30.573Z,34.80
2019-03-30T15:26:00.233Z,33.70
2019-03-30T15:28:29.940Z,32.90
2019-03-30T15:31:00.685Z,31.50
2019-03-30T15:35:59.568Z,29.30
2019-03-30T15:38:29.234Z,27.90
2019-03-30T15:40:58.880Z,28.60
2019-03-30T15:43:37.956Z,27.80
2019-03-30T15:46:00.104Z,27.60
2019-03-30T15:48:29.863Z,28.30
2019-03-30T15:51:00.390Z,28.40
2019-03-30T15:53:30.050Z,27.60
2019-03-30T15:58:29.020Z,26.30
2019-03-30T16:00:58.754Z,25.80
2019-03-30T16:03:28.408Z,26.00
2019-03-30T16:05:58.032Z,27.30
2019-03-30T16:08:27.701Z,26.30
2019-03-30T16:13:26.911Z,23.70
2019-03-30T16:15:57.544Z,24.10
2019-03-30T16:23:26.918Z,21.40
2019-03-30T16:25:56.569Z,21.10
2019-03-30T16:38:25.112Z,20.30
2019-03-30T16:40:54.781Z,20.00
2019-03-30T16:43:24.734Z,19.80
2019-03-30T16:45:54.696Z,19.60
2019-03-30T16:48:24.725Z,19.20
2019-03-30T16:50:54.371Z,19.30
2019-03-30T16:53:24.017Z,19.10
2019-03-30T16:55:53.954Z,18.80
2019-03-30T16:58:23.900Z,18.40
2019-03-30T17:00:56.627Z,18.60
2019-03-30T17:03:25.517Z,17.80
2019-03-30T17:05:56.507Z,17.90
2019-03-30T17:08:26.502Z,17.40
2019-03-30T17:10:56.514Z,17.40
2019-03-30T17:13:26.559Z,19.20
2019-03-30T17:15:58.552Z,16.60
2019-03-30T17:18:28.490Z,17.10
2019-03-30T17:20:58.438Z,17.20
2019-03-30T17:23:28.488Z,16.40
2019-03-30T17:25:58.614Z,16.30
2019-03-30T17:28:28.553Z,16.70
2019-03-30T17:30:58.533Z,16.20
2019-03-30T17:33:28.578Z,16.20
2019-03-30T17:35:58.622Z,16.20
2019-03-30T17:38:28.744Z,16.00
2019-03-30T17:40:58.789Z,15.70
2019-03-30T17:43:28.742Z,15.50
2019-03-30T17:45:58.682Z,15.90
2019-03-30T17:48:28.700Z,15.80
2019-03-30T17:50:58.744Z,15.70
2019-03-30T17:53:29.577Z,15.80
2019-03-30T17:56:01.860Z,15.60
2019-03-30T17:58:31.266Z,15.60
2019-03-30T18:01:01.351Z,15.60
2019-03-30T18:03:31.583Z,15.20
2019-03-30T18:06:01.552Z,15.50
2019-03-30T18:08:31.518Z,14.90
2019-03-30T18:11:04.057Z,15.30
2019-03-30T18:13:36.628Z,14.90
2019-03-30T18:18:35.487Z,15.10
2019-03-30T18:23:35.099Z,14.90
2019-03-30T18:26:05.230Z,15.30
2019-03-30T18:31:04.849Z,14.70
2019-03-30T18:33:35.164Z,14.70
2019-03-30T18:36:05.101Z,14.50
2019-03-30T18:38:36.778Z,14.20
2019-03-30T18:43:36.353Z,14.60
2019-03-30T18:46:06.474Z,14.10
2019-03-30T18:48:36.558Z,13.70
2019-03-30T18:51:06.505Z,14.10
2019-03-30T18:56:06.929Z,14.00
2019-03-30T18:58:41.916Z,14.40
2019-03-30T19:01:08.546Z,14.00
2019-03-30T19:03:38.502Z,14.10
2019-03-30T19:08:38.267Z,13.70
2019-03-30T19:11:08.260Z,13.70
2019-03-30T19:13:38.233Z,13.40
2019-03-30T19:21:07.694Z,13.20
2019-03-30T19:23:37.884Z,12.90
2019-03-30T19:28:37.637Z,12.00
2019-03-30T19:31:07.762Z,12.60
2019-03-30T19:33:37.824Z,12.10
2019-03-30T19:36:10.027Z,12.10
2019-03-30T19:38:39.472Z,12.10
2019-03-30T19:41:09.400Z,12.30
2019-03-30T19:43:39.373Z,11.70
2019-03-30T19:46:09.323Z,11.80
2019-03-30T19:51:09.358Z,11.90
2019-03-30T19:58:38.958Z,11.10
2019-03-30T20:01:09.303Z,11.00
2019-03-30T20:03:39.306Z,11.00
2019-03-30T20:06:09.351Z,11.50
2019-03-30T20:08:39.500Z,11.30
2019-03-30T20:11:09.653Z,11.20
2019-03-30T20:13:39.630Z,10.60
2019-03-30T20:16:11.424Z,11.00
2019-03-30T20:23:40.638Z,10.90
2019-03-30T20:26:10.877Z,10.50
2019-03-30T20:28:41.027Z,10.00
2019-03-30T20:31:11.019Z,10.20
2019-03-30T20:33:42.019Z,10.30
2019-03-30T20:36:12.024Z,10.00
2019-03-30T20:38:41.982Z,10.00
2019-03-30T20:41:11.911Z,9.50
2019-03-30T20:43:42.055Z,10.00
2019-03-30T20:46:11.992Z,9.30
2019-03-30T20:51:13.443Z,10.10
2019-03-30T20:53:43.494Z,9.80
2019-03-30T20:56:13.444Z,9.60
2019-03-30T20:58:43.420Z,9.30
2019-03-30T21:01:13.417Z,9.30
2019-03-30T21:03:43.581Z,10.00
2019-03-30T21:06:13.667Z,9.20
2019-03-30T21:08:43.683Z,9.40
2019-03-30T21:11:13.643Z,8.80
2019-03-30T21:16:13.474Z,8.80
2019-03-30T21:18:43.427Z,9.00
2019-03-30T21:21:13.550Z,9.00
2019-03-30T21:23:43.505Z,8.40
2019-03-30T21:26:13.466Z,8.40
2019-03-30T21:28:43.492Z,8.90
2019-03-30T21:31:14.420Z,9.30
2019-03-30T21:33:44.458Z,8.50
2019-03-30T21:38:44.043Z,8.80
2019-03-30T21:41:13.992Z,8.80
2019-03-30T21:43:43.931Z,8.70
2019-03-30T21:46:13.871Z,8.80
2019-03-30T21:48:43.808Z,9.00
2019-03-30T21:51:13.891Z,8.80
2019-03-30T21:53:44.179Z,8.80
2019-03-30T21:56:14.203Z,8.90
2019-03-30T21:58:44.244Z,8.90
2019-03-30T22:01:14.407Z,8.90
2019-03-30T22:03:44.417Z,8.90
2019-03-30T22:06:14.577Z,8.80
2019-03-30T22:11:14.376Z,8.50
2019-03-30T22:13:44.349Z,8.60
2019-03-30T22:16:14.335Z,8.50
2019-03-30T22:18:44.382Z,8.10
2019-03-30T22:21:14.410Z,8.90
2019-03-30T22:23:44.340Z,8.00
2019-03-30T22:26:15.460Z,9.00
2019-03-30T22:28:45.432Z,8.20
2019-03-30T22:31:15.588Z,8.30
2019-03-30T22:33:45.618Z,7.80
2019-03-30T22:36:15.559Z,8.00
2019-03-30T22:38:45.736Z,8.60
2019-03-30T22:41:15.862Z,7.80
2019-03-30T22:43:45.883Z,7.80
2019-03-30T22:46:15.850Z,7.60
2019-03-30T22:48:45.779Z,7.50
2019-03-30T22:53:46.137Z,7.70
2019-03-30T22:56:16.102Z,7.70
2019-03-30T22:58:46.062Z,7.60
2019-03-30T23:01:17.695Z,7.60
2019-03-30T23:03:49.272Z,7.50
2019-03-30T23:06:19.330Z,7.40
2019-03-30T23:08:51.371Z,7.40
2019-03-30T23:11:21.349Z,7.40
2019-03-30T23:13:51.302Z,7.30
2019-03-30T23:16:21.345Z,7.30
2019-03-30T23:18:51.427Z,7.80
2019-03-30T23:21:21.471Z,7.20
2019-03-30T23:26:21.011Z,7.40
2019-03-30T23:31:20.665Z,7.60
2019-03-30T23:33:50.596Z,7.20
2019-03-30T23:38:50.196Z,6.70
2019-03-30T23:41:20.315Z,7.30
2019-03-30T23:43:50.288Z,7.20
2019-03-30T23:46:20.272Z,7.10
2019-03-30T23:48:50.600Z,7.10
2019-03-30T23:51:20.879Z,7.10
2019-03-30T23:53:51.879Z,7.30
2019-03-30T23:56:24.053Z,7.00
2019-03-30T23:58:54.427Z,7.00
